Cactus Peak, Santa Catalina Island Weather observations

Data are for 10 minute period ending at time listed.
 Day   Time   Solar   Ave.   Ave.  Ave.  Vector    Max.   Stn.    Total
  of    of     Rad.   Air    Rel.  Wind   Wind     Wind   Baro.  Precip.
Year   Day            Temp.  Hum.  Speed  Dir.     Gust   Pres.         
2016   (PST)   W/m2    F      %     mph   deg.      mph    mb.     in.  
------------------------------------------------------------------------
 180   17:30  293.0    75   43.9    10    342.0    13.1    999.0   0.00  
 180   17:40  261.0    74   37.5    10    333.4    12.5    999.0   0.00  
 180   17:50  228.0    75   34.7     9    333.3    11.9    999.0   0.00  
 180   18:00  196.0    75   33.2    10    334.1    11.9    999.0   0.00  
 180   18:10  164.0    74   33.2     9    335.0    11.9    999.0   0.00  
 180   18:20  133.0    76   30.9     7    319.0    10.2    999.0   0.00  
 180   18:30  104.0    78   29.5     8    322.7    10.2    999.0   0.00  
 180   18:40   71.0    74   34.9     8    340.5     9.6    999.0   0.00  
 180   18:50   43.0    74   33.7     9    328.4    10.8    999.0   0.00  
 180   19:00   23.0    74   30.4    10    323.9    11.3    999.0   0.00  
 180   19:10    9.0    74   33.2     8    316.1    10.8    999.0   0.00  
 180   19:20    3.0    75   33.5     9    308.9    11.9    999.0   0.00  
 180   19:30    2.0    76   33.6     9    300.8    12.5    999.0   0.00  
 180   19:40    0.0    74   34.0     8    318.7    11.3    999.0   0.00  
 180   19:50    0.0    71   38.6     9    330.1    11.3    999.0   0.00  
 180   20:00    0.0    70   42.3     9    325.9    11.3    999.0   0.00  
 180   20:10    0.0    71   35.3     8    315.0    11.3    999.0   0.00  
 180   20:20    0.0    71   35.9     8    316.7    10.8    999.0   0.00  
 180   20:30    0.0    70   39.0     8    325.3    10.8    999.0   0.00  
 180   20:40    0.0    70   43.4    10    327.2    11.9    999.0   0.00  
 180   20:50    0.0    71   43.5     9    310.0    12.5    999.0   0.00  
 180   21:00    0.0    73   40.0    10    321.5    13.7    999.0   0.00  
 180   21:10    0.0    70   48.9    11    328.9    12.5    999.0   0.00  
 180   21:20    0.0    71   52.2    10    322.3    11.9    999.0   0.00  
 180   21:30    0.0    71   54.1     8    320.5    10.2    999.0   0.00  
 180   21:40    0.0    71   51.8     8    320.1    10.2    999.0   0.00  
 180   21:50    0.0    72   49.1     7    324.5     9.6    999.0   0.00  
 180   22:00    0.0    72   49.0     8    322.3     9.6    999.0   0.00  
 180   22:10    0.0    72   52.9     7    323.6     9.0    999.0   0.00  
 180   22:20    0.0    71   54.2     6    324.0     7.8    999.0   0.00  
 180   22:30    0.0    70   58.8     7    348.2     8.4    999.0   0.00  
 180   22:40    0.0    70   59.8     6    333.3     7.2    999.0   0.00  
 180   22:50    0.0    71   57.6     6    326.6     8.4    999.0   0.00  
 180   23:00    0.0    71   58.2     6    319.3     7.8    999.0   0.00  
 180   23:10    0.0    72   59.1     4    290.8     5.4    999.0   0.00  
 180   23:20    0.0    72   60.3     5    316.6     7.8    999.0   0.00  
 180   23:30    0.0    71   59.2     3    288.1     5.4    999.0   0.00  
 180   23:40    0.0    72   52.8     1    265.4     3.0    999.0   0.00  
 180   23:50    0.0    72   49.9     2    228.2     5.4    999.0   0.00  
 181    0:00    0.0    73   47.5     3    266.7     7.2    999.0   0.00  
 181    0:10    0.0    73   43.4     2    281.1     4.8    999.0   0.00  
 181    0:20    0.0    73   41.1     3    312.5     4.8    999.0   0.00  
 181    0:30    0.0    74   35.6     3    270.0     4.2    999.0   0.00  
 181    0:40    0.0    74   39.6     2    300.8     4.2    999.0   0.00  
 181    0:50    0.0    71   56.7     3    319.5     4.8    999.0   0.00  
 181    1:00    0.0    74   33.3     3    263.2     4.8    999.0   0.00  
 181    1:10    0.0    75   31.1     3    306.4     5.4    999.0   0.00  
 181    1:20    0.0    74   32.5     5    275.0     6.6    999.0   0.00  
 181    1:30    0.0    74   32.2     4    306.3     6.0    999.0   0.00  
 181    1:40    0.0    71   50.7     2    272.7     5.4    999.0   0.00  
 181    1:50    0.0    71   46.6     1    202.8     3.0    999.0   0.00  
 181    2:00    0.0    70   55.1     3    330.2     4.8    999.0   0.00  
 181    2:10    0.0    68   61.1     2    317.1     5.4    999.0   0.00  
 181    2:20    0.0    68   64.2     2    304.9     3.6    999.0   0.00  
 181    2:30    0.0    69   64.4     1    298.7     2.4    999.0   0.00  
 181    2:40    0.0    69   62.7     1    281.8     0.6    999.0   0.00  
 181    2:50    0.0    69   62.2     1    320.3     3.0    999.0   0.00  
 181    3:00    0.0    68   63.6     2    169.1     4.2    999.0   0.00  
 181    3:10    0.0    67   65.4     1    161.8     2.4    999.0   0.00  
 181    3:20    0.0    65   69.7     1     71.6     1.2    999.0   0.00  
 181    3:30    0.0    64   71.5     1     22.0     2.4    999.0   0.00  
 181    3:40    0.0    64   73.5     2     55.4     3.6    999.0   0.00  
 181    3:50    0.0    62   78.5     4     11.1     6.0    999.0   0.00  
 181    4:00    0.0    59   91.3     5     15.7     6.0    999.0   0.00  
 181    4:10    0.0    62   77.7     6     38.7     7.2    999.0   0.00  
 181    4:20    0.0    66   70.5     5     38.0     6.6    999.0   0.00  
 181    4:30    0.0    67   65.7     4     31.6     5.4    999.0   0.00  
 181    4:40    0.0    70   50.2     2     32.7     4.8    999.0   0.00  
 181    4:50    1.0    73   34.9     1      9.8     1.2    999.0   0.00  
 181    5:00    6.0    72   44.2     1    113.1     4.2    999.0   0.00  
 181    5:10   16.0    71   42.3     1    100.8     3.6    999.0   0.00  
 181    5:20   30.0    72   44.6     4     47.1     6.0    999.0   0.00  
 181    5:30   49.0    71   47.8     4     45.7     6.0    999.0   0.00  
 181    5:40   77.0    71   50.2     3     27.8     6.0    999.0   0.00  
 181    5:50  103.0    71   50.6     2    101.6     4.8    999.0   0.00  
 181    6:00  130.0    72   49.1     1     76.3     3.0    999.0   0.00  
 181    6:10  159.0    73   43.8     3    167.7     7.2    999.0   0.00  
 181    6:20  173.0    62   88.3     8    167.9    10.2    999.0   0.00  
 181    6:30  218.0    61   94.5     3    149.4     6.6    999.0   0.00  
 181    6:40  255.0    65   84.4     3    357.3     4.2    999.0   0.00  
 181    6:50  288.0    67   78.5     2    334.4     5.4    999.0   0.00  
 181    7:00  322.0    69   72.3     2    338.8     4.8    999.0   0.00  
 181    7:10  353.0    71   68.4     1    353.6     3.0    999.0   0.00  
 181    7:20  385.0    73   65.7     3    358.6     6.6    999.0   0.00  
 181    7:30  416.0    72   67.6     3    333.0     4.2    999.0   0.00  
 181    7:40  447.0    73   67.0     3    336.1     5.4    999.0   0.00  
 181    7:50  480.0    76   61.7     2    339.1     5.4    999.0   0.00  
 181    8:00  509.0    74   64.6     4    340.4     6.6    999.0   0.00  
 181    8:10  541.0    76   62.2     2    323.2     5.4    999.0   0.00  
 181    8:20  571.0    76   63.3     4    347.1     6.6    999.0   0.00  
 181    8:30  601.0    77   60.6     2    354.8     4.2    999.0   0.00  
 181    8:40  630.0    78   53.2     2    348.1     5.4    999.0   0.00  
 181    8:50  658.0    76   55.6     3    167.5     6.0    999.0   0.00  
 181    9:00  684.0    71   70.7     3    165.9     5.4    999.0   0.00  
 181    9:10  710.0    77   59.8     4    339.7     6.6    999.0   0.00  
 181    9:20  734.0    79   56.1     4    358.0     8.4    999.0   0.00  
 181    9:30  758.0    79   57.4     3    353.7     7.2    999.0   0.00  
 181    9:40  781.0    79   57.3     4    348.1     6.6    999.0   0.00  
 181    9:50  800.0    78   56.7     2    178.9     4.8    999.0   0.00  
 181   10:00  819.0    74   63.0     4    176.7     7.8    999.0   0.00  
 181   10:10  837.0    79   58.0     4    319.1     7.2    999.0   0.00  
 181   10:20  855.0    77   61.4     2    174.3     4.8    999.0   0.00  
 181   10:30  871.0    77   61.0     3    290.9     6.0    999.0   0.00  
 181   10:40  884.0    74   66.4     4    171.4     7.2    999.0   0.00  
 181   10:50  895.0    74   67.9     3    167.9     6.6    999.0   0.00  
 181   11:00  907.0    74   66.3     5    173.3     8.4    999.0   0.00  
 181   11:10  915.0    71   71.4     4    178.4     6.6    999.0   0.00  
 181   11:20  923.0    72   69.9     3    187.8     7.2    999.0   0.00  
 181   11:30  928.0    74   64.7     4    174.9     8.4    999.0   0.00  
 181   11:40  930.0    72   68.4     3    177.5     6.6    999.0   0.00  
 181   11:50  934.0    78   57.8     4    347.8     8.4    999.0   0.00  
 181   12:00  935.0    77   59.9     4    173.3     8.4    999.0   0.00  
 181   12:10  934.0    71   71.0     6    171.7     9.6    999.0   0.00  
 181   12:20  934.0    71   71.6     5    168.3    10.8    999.0   0.00  
 181   12:30  932.0    71   71.0     5    174.2     9.6    999.0   0.00  
 181   12:40  928.0    74   65.6     4    264.5     7.2    999.0   0.00  
 181   12:50  926.0    78   58.7     3    329.2     6.6    999.0   0.00  
 181   13:00  920.0    77   59.5     5    339.5     8.4    999.0   0.00  
 181   13:10  912.0    76   60.0     3    171.0     7.2    999.0   0.00  
 181   13:20  902.0    76   60.3     2    253.8     4.8    999.0   0.00  
 181   13:30  890.0    78   57.8     5    338.2     7.8    999.0   0.00  
 181   13:40  876.0    77   58.1     5    324.6    10.2    999.0   0.00  
 181   13:50  863.0    79   55.3     3    315.8     5.4    999.0   0.00  
 181   14:00  846.0    80   54.2     3    315.3     6.6    999.0   0.00  
 181   14:10  829.0    79   54.4     3    311.9     6.0    999.0   0.00  
 181   14:20  811.0    79   55.0     3    288.6     6.0    999.0   0.00  
 181   14:30  790.0    77   57.7     4    317.4     7.2    999.0   0.00  
 181   14:40  769.0    79   54.9     2    317.5     4.2    999.0   0.00  
 181   14:50  747.0    77   57.6     4    337.4     8.4    999.0   0.00  
 181   15:00  724.0    81   48.2     2    241.6     4.8    999.0   0.00  
 181   15:10  699.0    79   52.5     4    311.2     6.0    999.0   0.00  
 181   15:20  673.0    80   51.7     4    314.9     5.4    999.0   0.00  
 181   15:30  646.0    78   54.4     3    343.2     6.0    999.0   0.00  
 181   15:40  618.0    79   52.9     2    309.1     4.8    999.0   0.00  
 181   15:50  590.0    82   45.7     2    206.5     6.0    999.0   0.00  
 181   16:00  561.0    81   49.6     2    343.3     6.0    999.0   0.00  
 181   16:10  533.0    81   49.2     3    314.6     6.0    999.0   0.00  
 181   16:20  502.0    82   45.9     3    323.5     5.4    999.0   0.00  
 181   16:30  470.0    80   50.8     3    349.2     5.4    999.0   0.00  
 181   16:40  440.0    81   46.1     2    353.3     3.6    999.0   0.00  
 181   16:50  408.0    81   45.0     3    343.3     6.0    999.0   0.00  
 181   17:00  376.0    78   49.2     4    348.5     6.0    999.0   0.00  
 181   17:10  345.0    78   47.5     3    338.6     6.0    999.0   0.00  
 181   17:20  313.0    78   47.2     4    352.9     6.6    999.0   0.00  

Return to Cactus Peak graphs page.


Western Regional Climate Center,wrcc@dri.edu